sensor_id;sensor_type;location;lat;lon;timestamp;P1;durP1;ratioP1;P2;durP2;ratioP2
27863;SDS011;15980;51.092;13.916;2023-11-21T00:01:43;3.27;;;1.30;;
27863;SDS011;15980;51.092;13.916;2023-11-21T00:11:44;4.80;;;1.65;;
27863;SDS011;15980;51.092;13.916;2023-11-21T00:21:44;3.80;;;1.45;;
27863;SDS011;15980;51.092;13.916;2023-11-21T00:31:45;3.53;;;1.42;;
27863;SDS011;15980;51.092;13.916;2023-11-21T00:41:45;4.10;;;1.40;;
27863;SDS011;15980;51.092;13.916;2023-11-21T00:51:45;5.68;;;1.70;;
27863;SDS011;15980;51.092;13.916;2023-11-21T01:01:45;7.68;;;1.60;;
27863;SDS011;15980;51.092;13.916;2023-11-21T01:11:46;2.88;;;1.63;;
27863;SDS011;15980;51.092;13.916;2023-11-21T01:21:46;4.57;;;1.88;;
27863;SDS011;15980;51.092;13.916;2023-11-21T01:31:46;3.67;;;1.40;;
27863;SDS011;15980;51.092;13.916;2023-11-21T01:41:46;4.25;;;1.50;;
27863;SDS011;15980;51.092;13.916;2023-11-21T01:51:48;3.08;;;1.55;;
27863;SDS011;15980;51.092;13.916;2023-11-21T02:01:49;4.80;;;1.33;;
27863;SDS011;15980;51.092;13.916;2023-11-21T02:11:50;5.25;;;1.60;;
27863;SDS011;15980;51.092;13.916;2023-11-21T02:21:50;8.20;;;2.28;;
27863;SDS011;15980;51.092;13.916;2023-11-21T02:31:52;4.25;;;1.88;;
27863;SDS011;15980;51.092;13.916;2023-11-21T02:41:53;7.13;;;1.88;;
27863;SDS011;15980;51.092;13.916;2023-11-21T02:51:53;5.10;;;2.10;;
27863;SDS011;15980;51.092;13.916;2023-11-21T03:01:54;5.32;;;1.95;;
27863;SDS011;15980;51.092;13.916;2023-11-21T03:11:54;8.43;;;2.30;;
27863;SDS011;15980;51.092;13.916;2023-11-21T03:21:55;11.43;;;2.30;;
27863;SDS011;15980;51.092;13.916;2023-11-21T03:31:55;6.90;;;2.00;;
27863;SDS011;15980;51.092;13.916;2023-11-21T03:41:55;6.15;;;2.20;;
27863;SDS011;15980;51.092;13.916;2023-11-21T03:51:55;17.80;;;7.82;;
27863;SDS011;15980;51.092;13.916;2023-11-21T04:01:56;14.93;;;5.00;;
27863;SDS011;15980;51.092;13.916;2023-11-21T04:11:56;10.57;;;4.60;;
27863;SDS011;15980;51.092;13.916;2023-11-21T04:21:57;9.95;;;4.50;;
27863;SDS011;15980;51.092;13.916;2023-11-21T04:31:57;10.05;;;3.85;;
27863;SDS011;15980;51.092;13.916;2023-11-21T04:41:57;16.08;;;5.60;;
27863;SDS011;15980;51.092;13.916;2023-11-21T04:51:57;11.07;;;5.15;;
27863;SDS011;15980;51.092;13.916;2023-11-21T05:01:58;7.65;;;3.28;;
27863;SDS011;15980;51.092;13.916;2023-11-21T05:11:58;6.72;;;2.97;;
27863;SDS011;15980;51.092;13.916;2023-11-21T05:21:58;11.75;;;3.42;;
27863;SDS011;15980;51.092;13.916;2023-11-21T05:31:59;16.75;;;4.32;;
27863;SDS011;15980;51.092;13.916;2023-11-21T05:41:59;13.55;;;4.80;;
27863;SDS011;15980;51.092;13.916;2023-11-21T05:51:59;9.65;;;4.30;;
27863;SDS011;15980;51.092;13.916;2023-11-21T06:02:00;18.98;;;4.38;;
27863;SDS011;15980;51.092;13.916;2023-11-21T06:12:00;18.77;;;6.38;;
27863;SDS011;15980;51.092;13.916;2023-11-21T06:22:00;28.80;;;9.23;;
27863;SDS011;15980;51.092;13.916;2023-11-21T06:32:00;32.97;;;11.57;;
27863;SDS011;15980;51.092;13.916;2023-11-21T06:42:01;25.05;;;8.82;;
27863;SDS011;15980;51.092;13.916;2023-11-21T06:52:01;22.67;;;8.18;;
27863;SDS011;15980;51.092;13.916;2023-11-21T07:02:01;12.63;;;4.95;;
27863;SDS011;15980;51.092;13.916;2023-11-21T07:12:02;14.77;;;7.05;;
27863;SDS011;15980;51.092;13.916;2023-11-21T07:22:03;14.33;;;5.10;;
27863;SDS011;15980;51.092;13.916;2023-11-21T07:32:03;18.42;;;7.68;;
27863;SDS011;15980;51.092;13.916;2023-11-21T07:42:03;27.45;;;14.52;;
27863;SDS011;15980;51.092;13.916;2023-11-21T07:52:04;20.23;;;6.57;;
27863;SDS011;15980;51.092;13.916;2023-11-21T08:02:05;17.48;;;6.43;;
27863;SDS011;15980;51.092;13.916;2023-11-21T08:12:05;26.15;;;8.27;;
27863;SDS011;15980;51.092;13.916;2023-11-21T08:22:05;21.08;;;5.15;;
27863;SDS011;15980;51.092;13.916;2023-11-21T08:32:06;18.38;;;5.72;;
27863;SDS011;15980;51.092;13.916;2023-11-21T08:42:06;16.20;;;5.60;;
27863;SDS011;15980;51.092;13.916;2023-11-21T08:52:06;11.63;;;4.75;;
27863;SDS011;15980;51.092;13.916;2023-11-21T09:02:07;15.35;;;4.65;;
27863;SDS011;15980;51.092;13.916;2023-11-21T09:12:07;13.23;;;5.47;;
27863;SDS011;15980;51.092;13.916;2023-11-21T09:22:07;7.10;;;3.60;;
27863;SDS011;15980;51.092;13.916;2023-11-21T09:32:08;13.13;;;4.50;;
27863;SDS011;15980;51.092;13.916;2023-11-21T09:42:10;8.00;;;4.53;;
27863;SDS011;15980;51.092;13.916;2023-11-21T09:52:22;4.53;;;2.47;;
27863;SDS011;15980;51.092;13.916;2023-11-21T10:02:26;23.58;;;4.32;;
27863;SDS011;15980;51.092;13.916;2023-11-21T10:12:27;68.13;;;5.00;;
27863;SDS011;15980;51.092;13.916;2023-11-21T10:22:28;122.68;;;6.72;;
27863;SDS011;15980;51.092;13.916;2023-11-21T10:32:28;18.08;;;6.45;;
27863;SDS011;15980;51.092;13.916;2023-11-21T10:42:29;11.20;;;5.50;;
27863;SDS011;15980;51.092;13.916;2023-11-21T10:52:29;14.27;;;6.60;;
27863;SDS011;15980;51.092;13.916;2023-11-21T11:02:29;38.00;;;6.70;;
27863;SDS011;15980;51.092;13.916;2023-11-21T11:12:30;22.83;;;8.02;;
27863;SDS011;15980;51.092;13.916;2023-11-21T11:42:56;19.67;;;8.02;;
27863;SDS011;15980;51.092;13.916;2023-11-21T11:53:11;17.25;;;6.90;;
27863;SDS011;15980;51.092;13.916;2023-11-21T12:03:13;13.15;;;6.05;;
27863;SDS011;15980;51.092;13.916;2023-11-21T12:13:13;16.05;;;5.75;;
27863;SDS011;15980;51.092;13.916;2023-11-21T12:23:13;19.98;;;7.47;;
27863;SDS011;15980;51.092;13.916;2023-11-21T12:33:14;22.08;;;8.73;;
27863;SDS011;15980;51.092;13.916;2023-11-21T12:43:14;20.02;;;7.47;;
27863;SDS011;15980;51.092;13.916;2023-11-21T12:53:14;12.73;;;6.20;;
27863;SDS011;15980;51.092;13.916;2023-11-21T13:03:15;11.57;;;5.60;;
27863;SDS011;15980;51.092;13.916;2023-11-21T13:13:17;16.43;;;7.63;;
27863;SDS011;15980;51.092;13.916;2023-11-21T13:23:17;19.38;;;8.40;;
27863;SDS011;15980;51.092;13.916;2023-11-21T13:33:17;26.67;;;9.02;;
27863;SDS011;15980;51.092;13.916;2023-11-21T13:43:19;25.53;;;8.90;;
27863;SDS011;15980;51.092;13.916;2023-11-21T13:53:21;24.83;;;9.13;;
27863;SDS011;15980;51.092;13.916;2023-11-21T14:03:22;24.80;;;9.88;;
27863;SDS011;15980;51.092;13.916;2023-11-21T14:13:23;47.28;;;17.83;;
27863;SDS011;15980;51.092;13.916;2023-11-21T14:23:24;60.83;;;21.70;;
27863;SDS011;15980;51.092;13.916;2023-11-21T14:33:24;29.23;;;10.45;;
27863;SDS011;15980;51.092;13.916;2023-11-21T14:43:24;22.15;;;8.88;;
27863;SDS011;15980;51.092;13.916;2023-11-21T14:53:24;18.67;;;8.02;;
27863;SDS011;15980;51.092;13.916;2023-11-21T15:03:25;15.88;;;6.63;;
27863;SDS011;15980;51.092;13.916;2023-11-21T15:13:26;22.73;;;9.43;;
27863;SDS011;15980;51.092;13.916;2023-11-21T15:23:27;17.02;;;7.40;;
27863;SDS011;15980;51.092;13.916;2023-11-21T15:33:27;21.95;;;6.72;;
27863;SDS011;15980;51.092;13.916;2023-11-21T15:43:27;18.05;;;6.97;;
27863;SDS011;15980;51.092;13.916;2023-11-21T15:53:28;13.27;;;5.43;;
27863;SDS011;15980;51.092;13.916;2023-11-21T16:03:28;9.02;;;4.57;;
27863;SDS011;15980;51.092;13.916;2023-11-21T16:13:29;7.30;;;3.83;;
27863;SDS011;15980;51.092;13.916;2023-11-21T16:23:30;10.05;;;4.72;;
27863;SDS011;15980;51.092;13.916;2023-11-21T16:33:30;6.75;;;3.83;;
27863;SDS011;15980;51.092;13.916;2023-11-21T16:43:31;8.82;;;4.03;;
27863;SDS011;15980;51.092;13.916;2023-11-21T16:53:31;7.45;;;3.58;;
27863;SDS011;15980;51.092;13.916;2023-11-21T17:03:31;9.13;;;3.70;;
27863;SDS011;15980;51.092;13.916;2023-11-21T17:13:31;3.95;;;2.53;;
27863;SDS011;15980;51.092;13.916;2023-11-21T17:23:33;10.23;;;4.72;;
27863;SDS011;15980;51.092;13.916;2023-11-21T17:33:33;10.57;;;5.27;;
27863;SDS011;15980;51.092;13.916;2023-11-21T17:43:34;7.68;;;3.75;;
27863;SDS011;15980;51.092;13.916;2023-11-21T17:53:34;6.03;;;3.38;;
27863;SDS011;15980;51.092;13.916;2023-11-21T18:03:38;5.82;;;3.15;;
27863;SDS011;15980;51.092;13.916;2023-11-21T18:23:48;35.50;;;14.32;;
27863;SDS011;15980;51.092;13.916;2023-11-21T18:33:48;29.17;;;13.00;;
27863;SDS011;15980;51.092;13.916;2023-11-21T18:43:49;5.22;;;3.40;;
27863;SDS011;15980;51.092;13.916;2023-11-21T18:53:50;8.95;;;3.80;;
27863;SDS011;15980;51.092;13.916;2023-11-21T19:03:50;12.57;;;6.60;;
27863;SDS011;15980;51.092;13.916;2023-11-21T19:13:50;5.80;;;3.13;;
27863;SDS011;15980;51.092;13.916;2023-11-21T19:23:51;5.50;;;3.15;;
27863;SDS011;15980;51.092;13.916;2023-11-21T19:33:51;4.95;;;2.95;;
27863;SDS011;15980;51.092;13.916;2023-11-21T19:43:51;6.93;;;3.97;;
27863;SDS011;15980;51.092;13.916;2023-11-21T19:53:51;6.13;;;3.38;;
27863;SDS011;15980;51.092;13.916;2023-11-21T20:03:52;8.35;;;4.60;;
27863;SDS011;15980;51.092;13.916;2023-11-21T20:13:52;9.50;;;5.07;;
27863;SDS011;15980;51.092;13.916;2023-11-21T20:23:52;7.88;;;4.70;;
27863;SDS011;15980;51.092;13.916;2023-11-21T20:33:53;8.32;;;4.45;;
27863;SDS011;15980;51.092;13.916;2023-11-21T20:43:53;7.22;;;4.13;;
27863;SDS011;15980;51.092;13.916;2023-11-21T20:53:53;20.83;;;8.88;;
27863;SDS011;15980;51.092;13.916;2023-11-21T21:03:53;33.60;;;14.30;;
27863;SDS011;15980;51.092;13.916;2023-11-21T21:13:54;11.30;;;6.68;;
27863;SDS011;15980;51.092;13.916;2023-11-21T21:23:54;13.25;;;6.70;;
27863;SDS011;15980;51.092;13.916;2023-11-21T21:33:55;13.48;;;6.78;;
27863;SDS011;15980;51.092;13.916;2023-11-21T21:43:56;13.73;;;7.18;;
27863;SDS011;15980;51.092;13.916;2023-11-21T21:53:56;14.98;;;7.50;;
27863;SDS011;15980;51.092;13.916;2023-11-21T22:03:56;17.98;;;8.38;;
27863;SDS011;15980;51.092;13.916;2023-11-21T22:13:57;17.20;;;9.35;;
27863;SDS011;15980;51.092;13.916;2023-11-21T22:23:57;17.95;;;9.32;;
27863;SDS011;15980;51.092;13.916;2023-11-21T22:33:57;15.77;;;8.63;;
27863;SDS011;15980;51.092;13.916;2023-11-21T22:43:57;17.50;;;8.98;;
27863;SDS011;15980;51.092;13.916;2023-11-21T22:53:58;15.32;;;8.63;;
27863;SDS011;15980;51.092;13.916;2023-11-21T23:03:58;20.77;;;10.45;;
27863;SDS011;15980;51.092;13.916;2023-11-21T23:13:58;21.90;;;11.05;;
27863;SDS011;15980;51.092;13.916;2023-11-21T23:23:59;21.38;;;10.38;;
27863;SDS011;15980;51.092;13.916;2023-11-21T23:33:59;16.77;;;8.60;;
27863;SDS011;15980;51.092;13.916;2023-11-21T23:43:59;25.70;;;10.40;;
27863;SDS011;15980;51.092;13.916;2023-11-21T23:54:00;31.35;;;12.90;;
